sensor_id;sensor_type;location;lat;lon;timestamp;temperature;humidity
71208;DHT22;58938;49.868;8.646;2022-12-07T00:02:01;8.10;64.60
71208;DHT22;58938;49.868;8.646;2022-12-07T00:04:26;8.10;64.60
71208;DHT22;58938;49.868;8.646;2022-12-07T00:06:53;8.10;64.50
71208;DHT22;58938;49.868;8.646;2022-12-07T00:09:18;8.10;64.60
71208;DHT22;58938;49.868;8.646;2022-12-07T00:11:47;8.10;64.50
71208;DHT22;58938;49.868;8.646;2022-12-07T00:14:14;8.10;64.40
71208;DHT22;58938;49.868;8.646;2022-12-07T00:16:41;8.10;64.50
71208;DHT22;58938;49.868;8.646;2022-12-07T00:19:06;8.10;64.50
71208;DHT22;58938;49.868;8.646;2022-12-07T00:21:34;8.00;64.50
71208;DHT22;58938;49.868;8.646;2022-12-07T00:24:00;8.10;64.40
71208;DHT22;58938;49.868;8.646;2022-12-07T00:26:32;8.00;64.50
71208;DHT22;58938;49.868;8.646;2022-12-07T00:29:03;8.00;64.40
71208;DHT22;58938;49.868;8.646;2022-12-07T00:31:32;8.00;64.50
71208;DHT22;58938;49.868;8.646;2022-12-07T00:33:59;8.00;64.60
71208;DHT22;58938;49.868;8.646;2022-12-07T00:36:25;8.00;64.50
71208;DHT22;58938;49.868;8.646;2022-12-07T00:38:51;8.00;64.60
71208;DHT22;58938;49.868;8.646;2022-12-07T00:41:21;8.00;64.60
71208;DHT22;58938;49.868;8.646;2022-12-07T00:43:48;8.00;64.50
71208;DHT22;58938;49.868;8.646;2022-12-07T00:46:15;8.10;64.40
71208;DHT22;58938;49.868;8.646;2022-12-07T00:48:41;8.00;64.40
71208;DHT22;58938;49.868;8.646;2022-12-07T00:51:07;8.00;64.40
71208;DHT22;58938;49.868;8.646;2022-12-07T00:53:34;8.00;64.30
71208;DHT22;58938;49.868;8.646;2022-12-07T00:56:15;7.90;64.40
71208;DHT22;58938;49.868;8.646;2022-12-07T00:58:41;7.80;64.40
71208;DHT22;58938;49.868;8.646;2022-12-07T01:01:08;7.80;64.50
71208;DHT22;58938;49.868;8.646;2022-12-07T01:03:34;7.80;64.60
71208;DHT22;58938;49.868;8.646;2022-12-07T01:06:01;7.90;64.60
71208;DHT22;58938;49.868;8.646;2022-12-07T01:08:27;7.80;64.40
71208;DHT22;58938;49.868;8.646;2022-12-07T01:11:04;7.80;64.50
71208;DHT22;58938;49.868;8.646;2022-12-07T01:13:32;7.70;64.40
71208;DHT22;58938;49.868;8.646;2022-12-07T01:15:59;7.70;64.40
71208;DHT22;58938;49.868;8.646;2022-12-07T01:18:29;7.60;64.50
71208;DHT22;58938;49.868;8.646;2022-12-07T01:21:07;7.60;64.60
71208;DHT22;58938;49.868;8.646;2022-12-07T01:23:34;7.50;64.70
71208;DHT22;58938;49.868;8.646;2022-12-07T01:26:02;7.50;64.90
71208;DHT22;58938;49.868;8.646;2022-12-07T01:28:28;7.60;64.90
71208;DHT22;58938;49.868;8.646;2022-12-07T01:30:59;7.60;64.90
71208;DHT22;58938;49.868;8.646;2022-12-07T01:33:27;7.60;64.90
71208;DHT22;58938;49.868;8.646;2022-12-07T01:35:54;7.60;65.00
71208;DHT22;58938;49.868;8.646;2022-12-07T01:38:19;7.70;64.90
71208;DHT22;58938;49.868;8.646;2022-12-07T01:40:45;7.70;64.90
71208;DHT22;58938;49.868;8.646;2022-12-07T01:43:23;7.70;64.90
71208;DHT22;58938;49.868;8.646;2022-12-07T01:45:49;7.70;64.90
71208;DHT22;58938;49.868;8.646;2022-12-07T01:48:18;7.70;64.80
71208;DHT22;58938;49.868;8.646;2022-12-07T01:50:45;7.70;64.80
71208;DHT22;58938;49.868;8.646;2022-12-07T01:53:13;7.70;64.80
71208;DHT22;58938;49.868;8.646;2022-12-07T01:55:42;7.70;64.80
71208;DHT22;58938;49.868;8.646;2022-12-07T01:58:09;7.70;64.80
71208;DHT22;58938;49.868;8.646;2022-12-07T02:00:36;7.70;64.80
71208;DHT22;58938;49.868;8.646;2022-12-07T02:03:07;7.70;64.90
71208;DHT22;58938;49.868;8.646;2022-12-07T02:05:35;7.70;65.00
71208;DHT22;58938;49.868;8.646;2022-12-07T02:08:03;7.70;64.90
71208;DHT22;58938;49.868;8.646;2022-12-07T02:10:30;7.70;64.80
71208;DHT22;58938;49.868;8.646;2022-12-07T02:15:59;7.70;64.80
71208;DHT22;58938;49.868;8.646;2022-12-07T02:32:43;7.40;65.00
71208;DHT22;58938;49.868;8.646;2022-12-07T02:35:20;7.40;65.10
71208;DHT22;58938;49.868;8.646;2022-12-07T02:38:03;7.40;65.10
71208;DHT22;58938;49.868;8.646;2022-12-07T02:40:40;7.40;65.10
71208;DHT22;58938;49.868;8.646;2022-12-07T02:43:13;7.40;65.00
71208;DHT22;58938;49.868;8.646;2022-12-07T02:45:42;7.40;65.10
71208;DHT22;58938;49.868;8.646;2022-12-07T02:48:10;7.40;65.10
71208;DHT22;58938;49.868;8.646;2022-12-07T02:50:37;7.40;65.20
71208;DHT22;58938;49.868;8.646;2022-12-07T02:53:02;7.40;65.30
71208;DHT22;58938;49.868;8.646;2022-12-07T02:55:34;7.40;65.30
71208;DHT22;58938;49.868;8.646;2022-12-07T03:00:27;7.50;65.30
71208;DHT22;58938;49.868;8.646;2022-12-07T03:08:39;7.40;65.00
71208;DHT22;58938;49.868;8.646;2022-12-07T03:11:12;7.40;65.50
71208;DHT22;58938;49.868;8.646;2022-12-07T03:13:45;7.40;65.40
71208;DHT22;58938;49.868;8.646;2022-12-07T03:16:20;7.40;65.30
71208;DHT22;58938;49.868;8.646;2022-12-07T03:18:52;7.30;65.30
71208;DHT22;58938;49.868;8.646;2022-12-07T03:21:23;7.30;65.50
71208;DHT22;58938;49.868;8.646;2022-12-07T03:23:53;7.30;65.50
71208;DHT22;58938;49.868;8.646;2022-12-07T03:26:24;7.30;65.50
71208;DHT22;58938;49.868;8.646;2022-12-07T03:28:55;7.30;65.50
71208;DHT22;58938;49.868;8.646;2022-12-07T03:31:25;7.30;65.60
71208;DHT22;58938;49.868;8.646;2022-12-07T03:34:32;7.30;65.70
71208;DHT22;58938;49.868;8.646;2022-12-07T03:37:04;7.40;65.80
71208;DHT22;58938;49.868;8.646;2022-12-07T03:39:39;7.40;65.70
71208;DHT22;58938;49.868;8.646;2022-12-07T03:42:07;7.40;65.60
71208;DHT22;58938;49.868;8.646;2022-12-07T03:44:35;7.40;65.50
71208;DHT22;58938;49.868;8.646;2022-12-07T03:50:10;7.30;65.50
71208;DHT22;58938;49.868;8.646;2022-12-07T03:52:45;7.30;65.80
71208;DHT22;58938;49.868;8.646;2022-12-07T03:55:27;7.30;65.90
71208;DHT22;58938;49.868;8.646;2022-12-07T03:57:56;7.40;65.90
71208;DHT22;58938;49.868;8.646;2022-12-07T04:00:25;7.40;65.90
71208;DHT22;58938;49.868;8.646;2022-12-07T04:02:52;7.40;65.90
71208;DHT22;58938;49.868;8.646;2022-12-07T04:05:18;7.30;65.90
71208;DHT22;58938;49.868;8.646;2022-12-07T04:07:44;7.30;66.20
71208;DHT22;58938;49.868;8.646;2022-12-07T04:10:10;7.30;66.40
71208;DHT22;58938;49.868;8.646;2022-12-07T04:12:36;7.30;66.40
71208;DHT22;58938;49.868;8.646;2022-12-07T04:15:02;7.30;66.40
71208;DHT22;58938;49.868;8.646;2022-12-07T04:17:27;7.30;66.30
71208;DHT22;58938;49.868;8.646;2022-12-07T04:19:53;7.30;66.50
71208;DHT22;58938;49.868;8.646;2022-12-07T04:22:18;7.20;66.50
71208;DHT22;58938;49.868;8.646;2022-12-07T04:24:44;7.20;66.60
71208;DHT22;58938;49.868;8.646;2022-12-07T04:27:09;7.20;66.70
71208;DHT22;58938;49.868;8.646;2022-12-07T04:29:35;7.20;66.90
71208;DHT22;58938;49.868;8.646;2022-12-07T04:32:00;7.20;66.80
71208;DHT22;58938;49.868;8.646;2022-12-07T04:34:26;7.20;66.90
71208;DHT22;58938;49.868;8.646;2022-12-07T04:36:52;7.30;66.90
71208;DHT22;58938;49.868;8.646;2022-12-07T04:39:23;7.30;66.90
71208;DHT22;58938;49.868;8.646;2022-12-07T04:41:49;7.30;66.80
71208;DHT22;58938;49.868;8.646;2022-12-07T04:44:15;7.30;66.80
71208;DHT22;58938;49.868;8.646;2022-12-07T04:46:41;7.30;66.70
71208;DHT22;58938;49.868;8.646;2022-12-07T04:49:08;7.30;66.80
71208;DHT22;58938;49.868;8.646;2022-12-07T04:51:33;7.30;66.70
71208;DHT22;58938;49.868;8.646;2022-12-07T04:53:59;7.30;66.90
71208;DHT22;58938;49.868;8.646;2022-12-07T04:56:24;7.30;66.80
71208;DHT22;58938;49.868;8.646;2022-12-07T04:58:52;7.30;66.80
71208;DHT22;58938;49.868;8.646;2022-12-07T05:01:18;7.20;67.00
71208;DHT22;58938;49.868;8.646;2022-12-07T05:03:44;7.20;67.00
71208;DHT22;58938;49.868;8.646;2022-12-07T05:06:10;7.30;67.10
71208;DHT22;58938;49.868;8.646;2022-12-07T05:08:36;7.30;67.00
71208;DHT22;58938;49.868;8.646;2022-12-07T05:11:02;7.30;66.90
71208;DHT22;58938;49.868;8.646;2022-12-07T05:13:28;7.30;66.90
71208;DHT22;58938;49.868;8.646;2022-12-07T05:15:54;7.30;66.80
71208;DHT22;58938;49.868;8.646;2022-12-07T05:18:19;7.40;66.80
71208;DHT22;58938;49.868;8.646;2022-12-07T05:20:45;7.40;66.70
71208;DHT22;58938;49.868;8.646;2022-12-07T05:23:11;7.40;66.80
71208;DHT22;58938;49.868;8.646;2022-12-07T05:25:36;7.40;66.80
71208;DHT22;58938;49.868;8.646;2022-12-07T05:28:03;7.40;66.70
71208;DHT22;58938;49.868;8.646;2022-12-07T05:30:28;7.50;66.70
71208;DHT22;58938;49.868;8.646;2022-12-07T05:32:54;7.50;66.70
71208;DHT22;58938;49.868;8.646;2022-12-07T05:35:20;7.50;66.50
71208;DHT22;58938;49.868;8.646;2022-12-07T05:37:46;7.40;66.60
71208;DHT22;58938;49.868;8.646;2022-12-07T05:40:12;7.30;66.60
71208;DHT22;58938;49.868;8.646;2022-12-07T05:42:39;7.40;66.70
71208;DHT22;58938;49.868;8.646;2022-12-07T05:45:05;7.40;66.80
71208;DHT22;58938;49.868;8.646;2022-12-07T05:47:31;7.40;66.80
71208;DHT22;58938;49.868;8.646;2022-12-07T05:49:56;7.40;66.60
71208;DHT22;58938;49.868;8.646;2022-12-07T05:52:22;7.40;66.80
71208;DHT22;58938;49.868;8.646;2022-12-07T05:54:48;7.30;66.90
71208;DHT22;58938;49.868;8.646;2022-12-07T05:57:13;7.40;67.00
71208;DHT22;58938;49.868;8.646;2022-12-07T05:59:39;7.40;66.90
71208;DHT22;58938;49.868;8.646;2022-12-07T06:02:07;7.40;66.90
71208;DHT22;58938;49.868;8.646;2022-12-07T06:04:36;7.40;67.00
71208;DHT22;58938;49.868;8.646;2022-12-07T06:07:02;7.40;67.00
71208;DHT22;58938;49.868;8.646;2022-12-07T06:09:28;7.40;66.80
71208;DHT22;58938;49.868;8.646;2022-12-07T06:11:54;7.40;66.80
71208;DHT22;58938;49.868;8.646;2022-12-07T06:14:39;7.40;66.80
71208;DHT22;58938;49.868;8.646;2022-12-07T06:17:05;7.40;66.80
71208;DHT22;58938;49.868;8.646;2022-12-07T06:19:31;7.40;66.90
71208;DHT22;58938;49.868;8.646;2022-12-07T06:21:57;7.40;66.90
71208;DHT22;58938;49.868;8.646;2022-12-07T06:24:23;7.40;66.90
71208;DHT22;58938;49.868;8.646;2022-12-07T06:26:49;7.40;66.70
71208;DHT22;58938;49.868;8.646;2022-12-07T06:29:16;7.40;66.80
71208;DHT22;58938;49.868;8.646;2022-12-07T06:31:41;7.40;66.70
71208;DHT22;58938;49.868;8.646;2022-12-07T06:34:10;7.40;66.90
71208;DHT22;58938;49.868;8.646;2022-12-07T06:36:36;7.40;66.90
71208;DHT22;58938;49.868;8.646;2022-12-07T06:39:03;7.40;66.90
71208;DHT22;58938;49.868;8.646;2022-12-07T06:41:29;7.40;66.90
71208;DHT22;58938;49.868;8.646;2022-12-07T06:43:55;7.40;67.00
71208;DHT22;58938;49.868;8.646;2022-12-07T06:46:20;7.40;67.00
71208;DHT22;58938;49.868;8.646;2022-12-07T06:48:46;7.50;66.80
71208;DHT22;58938;49.868;8.646;2022-12-07T06:51:12;7.50;66.80
71208;DHT22;58938;49.868;8.646;2022-12-07T06:53:38;7.50;66.90
71208;DHT22;58938;49.868;8.646;2022-12-07T06:56:04;7.50;66.90
71208;DHT22;58938;49.868;8.646;2022-12-07T06:58:30;7.50;66.80
71208;DHT22;58938;49.868;8.646;2022-12-07T07:00:56;7.40;66.90
71208;DHT22;58938;49.868;8.646;2022-12-07T07:03:21;7.40;66.90
71208;DHT22;58938;49.868;8.646;2022-12-07T07:05:47;7.40;66.90
71208;DHT22;58938;49.868;8.646;2022-12-07T07:08:13;7.50;67.00
71208;DHT22;58938;49.868;8.646;2022-12-07T07:10:39;7.50;67.00
71208;DHT22;58938;49.868;8.646;2022-12-07T07:13:05;7.50;67.00
71208;DHT22;58938;49.868;8.646;2022-12-07T07:15:32;7.50;67.00
71208;DHT22;58938;49.868;8.646;2022-12-07T07:17:58;7.50;67.00
71208;DHT22;58938;49.868;8.646;2022-12-07T07:20:23;7.50;67.00
71208;DHT22;58938;49.868;8.646;2022-12-07T07:22:49;7.50;66.90
71208;DHT22;58938;49.868;8.646;2022-12-07T07:25:15;7.50;67.00
71208;DHT22;58938;49.868;8.646;2022-12-07T07:27:40;7.50;67.00
71208;DHT22;58938;49.868;8.646;2022-12-07T07:30:07;7.50;67.00
71208;DHT22;58938;49.868;8.646;2022-12-07T07:32:33;7.50;67.10
71208;DHT22;58938;49.868;8.646;2022-12-07T07:34:59;7.50;67.10
71208;DHT22;58938;49.868;8.646;2022-12-07T07:37:25;7.50;67.10
71208;DHT22;58938;49.868;8.646;2022-12-07T07:39:50;7.50;67.10
71208;DHT22;58938;49.868;8.646;2022-12-07T07:42:16;7.50;67.10
71208;DHT22;58938;49.868;8.646;2022-12-07T07:44:41;7.50;67.20
71208;DHT22;58938;49.868;8.646;2022-12-07T07:47:07;7.60;67.20
71208;DHT22;58938;49.868;8.646;2022-12-07T07:49:32;7.60;67.10
71208;DHT22;58938;49.868;8.646;2022-12-07T07:51:58;7.60;67.10
71208;DHT22;58938;49.868;8.646;2022-12-07T07:54:24;7.60;67.00
71208;DHT22;58938;49.868;8.646;2022-12-07T07:56:49;7.50;67.20
71208;DHT22;58938;49.868;8.646;2022-12-07T07:59:15;7.60;67.20
71208;DHT22;58938;49.868;8.646;2022-12-07T08:01:41;7.60;67.10
71208;DHT22;58938;49.868;8.646;2022-12-07T08:04:06;7.60;67.20
71208;DHT22;58938;49.868;8.646;2022-12-07T08:06:32;7.60;67.30
71208;DHT22;58938;49.868;8.646;2022-12-07T08:08:58;7.60;67.30
71208;DHT22;58938;49.868;8.646;2022-12-07T08:11:24;7.60;67.30
71208;DHT22;58938;49.868;8.646;2022-12-07T08:13:49;7.70;67.20
71208;DHT22;58938;49.868;8.646;2022-12-07T08:16:15;7.70;67.30
71208;DHT22;58938;49.868;8.646;2022-12-07T08:18:41;7.70;67.20
71208;DHT22;58938;49.868;8.646;2022-12-07T08:21:11;7.70;67.20
71208;DHT22;58938;49.868;8.646;2022-12-07T08:23:37;7.70;67.10
71208;DHT22;58938;49.868;8.646;2022-12-07T08:26:05;7.70;67.20
71208;DHT22;58938;49.868;8.646;2022-12-07T08:28:31;7.70;67.10
71208;DHT22;58938;49.868;8.646;2022-12-07T08:31:01;7.80;67.20
71208;DHT22;58938;49.868;8.646;2022-12-07T08:33:27;7.70;67.20
71208;DHT22;58938;49.868;8.646;2022-12-07T08:35:53;7.80;67.20
71208;DHT22;58938;49.868;8.646;2022-12-07T08:38:18;7.80;67.20
71208;DHT22;58938;49.868;8.646;2022-12-07T08:40:44;7.80;67.20
71208;DHT22;58938;49.868;8.646;2022-12-07T08:43:09;7.90;67.20
71208;DHT22;58938;49.868;8.646;2022-12-07T08:45:35;7.90;67.20
71208;DHT22;58938;49.868;8.646;2022-12-07T08:48:06;7.90;67.20
71208;DHT22;58938;49.868;8.646;2022-12-07T08:50:33;7.90;67.10
71208;DHT22;58938;49.868;8.646;2022-12-07T08:52:59;7.90;67.10
71208;DHT22;58938;49.868;8.646;2022-12-07T08:55:26;7.90;67.00
71208;DHT22;58938;49.868;8.646;2022-12-07T08:57:52;7.90;67.10
71208;DHT22;58938;49.868;8.646;2022-12-07T09:00:18;7.90;67.10
71208;DHT22;58938;49.868;8.646;2022-12-07T09:02:44;7.80;67.30
71208;DHT22;58938;49.868;8.646;2022-12-07T09:05:11;7.80;67.10
71208;DHT22;58938;49.868;8.646;2022-12-07T09:07:37;7.80;67.20
71208;DHT22;58938;49.868;8.646;2022-12-07T09:10:04;7.80;67.20
71208;DHT22;58938;49.868;8.646;2022-12-07T09:12:30;7.80;67.40
71208;DHT22;58938;49.868;8.646;2022-12-07T09:14:56;7.80;67.30
71208;DHT22;58938;49.868;8.646;2022-12-07T09:17:22;7.80;67.30
71208;DHT22;58938;49.868;8.646;2022-12-07T09:19:47;7.80;67.30
71208;DHT22;58938;49.868;8.646;2022-12-07T09:22:13;7.90;67.40
71208;DHT22;58938;49.868;8.646;2022-12-07T09:24:38;7.90;67.20
71208;DHT22;58938;49.868;8.646;2022-12-07T09:27:05;7.90;67.40
71208;DHT22;58938;49.868;8.646;2022-12-07T09:29:30;7.90;67.30
71208;DHT22;58938;49.868;8.646;2022-12-07T09:31:56;8.00;67.20
71208;DHT22;58938;49.868;8.646;2022-12-07T09:34:22;8.00;67.30
71208;DHT22;58938;49.868;8.646;2022-12-07T09:36:47;8.00;67.10
71208;DHT22;58938;49.868;8.646;2022-12-07T09:39:13;8.00;67.40
71208;DHT22;58938;49.868;8.646;2022-12-07T09:41:40;8.00;67.40
71208;DHT22;58938;49.868;8.646;2022-12-07T09:44:11;8.10;67.40
71208;DHT22;58938;49.868;8.646;2022-12-07T09:46:40;8.10;67.30
71208;DHT22;58938;49.868;8.646;2022-12-07T09:49:12;8.20;67.40
71208;DHT22;58938;49.868;8.646;2022-12-07T09:51:39;8.20;67.20
71208;DHT22;58938;49.868;8.646;2022-12-07T09:54:05;8.10;67.00
71208;DHT22;58938;49.868;8.646;2022-12-07T09:56:31;8.10;67.10
71208;DHT22;58938;49.868;8.646;2022-12-07T09:59:02;8.20;67.20
71208;DHT22;58938;49.868;8.646;2022-12-07T10:01:30;8.20;67.10
71208;DHT22;58938;49.868;8.646;2022-12-07T10:04:15;8.20;67.20
71208;DHT22;58938;49.868;8.646;2022-12-07T10:06:42;8.20;67.20
71208;DHT22;58938;49.868;8.646;2022-12-07T10:09:12;8.20;67.10
71208;DHT22;58938;49.868;8.646;2022-12-07T10:12:07;8.20;67.00
71208;DHT22;58938;49.868;8.646;2022-12-07T10:14:36;8.20;67.00
71208;DHT22;58938;49.868;8.646;2022-12-07T10:17:02;8.20;67.10
71208;DHT22;58938;49.868;8.646;2022-12-07T10:19:48;8.20;67.10
71208;DHT22;58938;49.868;8.646;2022-12-07T10:22:16;8.30;67.20
71208;DHT22;58938;49.868;8.646;2022-12-07T10:24:43;8.30;67.10
71208;DHT22;58938;49.868;8.646;2022-12-07T10:27:31;8.30;66.90
71208;DHT22;58938;49.868;8.646;2022-12-07T10:29:58;8.30;67.00
71208;DHT22;58938;49.868;8.646;2022-12-07T10:32:35;8.30;67.00
71208;DHT22;58938;49.868;8.646;2022-12-07T10:35:21;8.30;67.00
71208;DHT22;58938;49.868;8.646;2022-12-07T10:37:47;8.30;67.10
71208;DHT22;58938;49.868;8.646;2022-12-07T10:40:34;8.40;67.10
71208;DHT22;58938;49.868;8.646;2022-12-07T10:51:31;8.50;67.10
71208;DHT22;58938;49.868;8.646;2022-12-07T10:54:15;8.60;67.20
71208;DHT22;58938;49.868;8.646;2022-12-07T10:57:04;8.60;67.20
71208;DHT22;58938;49.868;8.646;2022-12-07T10:59:57;8.70;67.20
71208;DHT22;58938;49.868;8.646;2022-12-07T11:11:14;8.80;66.90
71208;DHT22;58938;49.868;8.646;2022-12-07T11:13:48;8.80;66.30
71208;DHT22;58938;49.868;8.646;2022-12-07T11:22:18;8.70;66.10
71208;DHT22;58938;49.868;8.646;2022-12-07T11:24:49;8.80;65.90
71208;DHT22;58938;49.868;8.646;2022-12-07T11:29:58;8.80;65.80
71208;DHT22;58938;49.868;8.646;2022-12-07T11:37:59;8.90;64.60
71208;DHT22;58938;49.868;8.646;2022-12-07T11:40:35;8.90;64.30
71208;DHT22;58938;49.868;8.646;2022-12-07T11:43:09;8.90;64.20
71208;DHT22;58938;49.868;8.646;2022-12-07T11:45:39;8.90;64.00
71208;DHT22;58938;49.868;8.646;2022-12-07T11:50:57;8.90;64.10
71208;DHT22;58938;49.868;8.646;2022-12-07T11:53:34;8.90;63.80
71208;DHT22;58938;49.868;8.646;2022-12-07T11:56:09;8.90;63.40
71208;DHT22;58938;49.868;8.646;2022-12-07T11:58:55;8.90;63.20
71208;DHT22;58938;49.868;8.646;2022-12-07T12:06:40;8.80;62.50
71208;DHT22;58938;49.868;8.646;2022-12-07T12:09:31;8.80;63.00
71208;DHT22;58938;49.868;8.646;2022-12-07T12:12:23;8.90;63.00
71208;DHT22;58938;49.868;8.646;2022-12-07T12:16:02;8.90;62.80
71208;DHT22;58938;49.868;8.646;2022-12-07T12:18:25;8.90;62.80
71208;DHT22;58938;49.868;8.646;2022-12-07T12:21:00;8.90;62.80
71208;DHT22;58938;49.868;8.646;2022-12-07T12:26:05;9.00;62.40
71208;DHT22;58938;49.868;8.646;2022-12-07T12:28:57;9.00;62.50
71208;DHT22;58938;49.868;8.646;2022-12-07T12:33:58;8.80;62.00
71208;DHT22;58938;49.868;8.646;2022-12-07T12:36:28;8.80;61.80
71208;DHT22;58938;49.868;8.646;2022-12-07T12:39:14;8.90;62.20
71208;DHT22;58938;49.868;8.646;2022-12-07T12:46:53;8.90;62.00
71208;DHT22;58938;49.868;8.646;2022-12-07T12:51:47;9.00;62.10
71208;DHT22;58938;49.868;8.646;2022-12-07T12:59:23;9.10;62.20
71208;DHT22;58938;49.868;8.646;2022-12-07T13:01:51;9.10;62.20
71208;DHT22;58938;49.868;8.646;2022-12-07T13:04:30;9.10;62.30
71208;DHT22;58938;49.868;8.646;2022-12-07T13:06:59;9.10;62.40
71208;DHT22;58938;49.868;8.646;2022-12-07T13:09:33;9.20;62.50
71208;DHT22;58938;49.868;8.646;2022-12-07T13:12:13;9.20;62.60
71208;DHT22;58938;49.868;8.646;2022-12-07T13:20:02;9.20;62.80
71208;DHT22;58938;49.868;8.646;2022-12-07T13:25:10;9.10;62.80
71208;DHT22;58938;49.868;8.646;2022-12-07T13:27:41;9.10;62.80
71208;DHT22;58938;49.868;8.646;2022-12-07T13:30:18;9.10;63.10
71208;DHT22;58938;49.868;8.646;2022-12-07T13:32:52;9.10;63.20
71208;DHT22;58938;49.868;8.646;2022-12-07T13:35:53;9.20;63.20
71208;DHT22;58938;49.868;8.646;2022-12-07T13:38:25;9.10;63.30
71208;DHT22;58938;49.868;8.646;2022-12-07T13:41:15;9.20;63.40
71208;DHT22;58938;49.868;8.646;2022-12-07T13:44:17;9.20;63.50
71208;DHT22;58938;49.868;8.646;2022-12-07T13:46:51;9.20;63.60
71208;DHT22;58938;49.868;8.646;2022-12-07T13:49:26;9.30;63.70
71208;DHT22;58938;49.868;8.646;2022-12-07T13:51:54;9.40;63.90
71208;DHT22;58938;49.868;8.646;2022-12-07T13:54:20;9.60;63.90
71208;DHT22;58938;49.868;8.646;2022-12-07T13:56:53;9.60;64.00
71208;DHT22;58938;49.868;8.646;2022-12-07T13:59:21;9.60;64.00
71208;DHT22;58938;49.868;8.646;2022-12-07T14:01:49;9.60;64.00
71208;DHT22;58938;49.868;8.646;2022-12-07T14:04:36;9.60;63.90
71208;DHT22;58938;49.868;8.646;2022-12-07T14:07:26;9.60;63.80
71208;DHT22;58938;49.868;8.646;2022-12-07T14:10:06;9.50;63.50
71208;DHT22;58938;49.868;8.646;2022-12-07T14:12:36;9.50;63.70
71208;DHT22;58938;49.868;8.646;2022-12-07T14:15:03;9.40;63.20
71208;DHT22;58938;49.868;8.646;2022-12-07T14:17:29;9.40;63.70
71208;DHT22;58938;49.868;8.646;2022-12-07T14:19:59;9.30;63.70
71208;DHT22;58938;49.868;8.646;2022-12-07T14:22:34;9.40;63.80
71208;DHT22;58938;49.868;8.646;2022-12-07T14:25:24;9.40;63.90
71208;DHT22;58938;49.868;8.646;2022-12-07T14:27:59;9.40;63.90
71208;DHT22;58938;49.868;8.646;2022-12-07T14:30:29;9.40;63.80
71208;DHT22;58938;49.868;8.646;2022-12-07T14:33:03;9.40;63.90
71208;DHT22;58938;49.868;8.646;2022-12-07T14:35:30;9.40;63.90
71208;DHT22;58938;49.868;8.646;2022-12-07T14:37:56;9.40;63.90
71208;DHT22;58938;49.868;8.646;2022-12-07T14:40:27;9.40;63.70
71208;DHT22;58938;49.868;8.646;2022-12-07T14:42:57;9.40;63.80
71208;DHT22;58938;49.868;8.646;2022-12-07T14:45:23;9.40;63.90
71208;DHT22;58938;49.868;8.646;2022-12-07T14:47:49;9.40;63.90
71208;DHT22;58938;49.868;8.646;2022-12-07T14:50:17;9.40;63.90
71208;DHT22;58938;49.868;8.646;2022-12-07T14:52:49;9.40;63.80
71208;DHT22;58938;49.868;8.646;2022-12-07T14:55:25;9.40;63.90
71208;DHT22;58938;49.868;8.646;2022-12-07T14:57:51;9.40;63.80
71208;DHT22;58938;49.868;8.646;2022-12-07T15:00:18;9.40;63.70
71208;DHT22;58938;49.868;8.646;2022-12-07T15:02:45;9.40;63.70
71208;DHT22;58938;49.868;8.646;2022-12-07T15:05:11;9.40;63.60
71208;DHT22;58938;49.868;8.646;2022-12-07T15:07:38;9.40;62.70
71208;DHT22;58938;49.868;8.646;2022-12-07T15:10:04;9.30;63.30
71208;DHT22;58938;49.868;8.646;2022-12-07T15:12:30;9.30;63.10
71208;DHT22;58938;49.868;8.646;2022-12-07T15:14:56;9.30;63.00
71208;DHT22;58938;49.868;8.646;2022-12-07T15:17:21;9.30;62.70
71208;DHT22;58938;49.868;8.646;2022-12-07T15:19:47;9.30;63.00
71208;DHT22;58938;49.868;8.646;2022-12-07T15:22:13;9.30;62.90
71208;DHT22;58938;49.868;8.646;2022-12-07T15:24:38;9.30;62.30
71208;DHT22;58938;49.868;8.646;2022-12-07T15:27:04;9.20;62.30
71208;DHT22;58938;49.868;8.646;2022-12-07T15:29:30;9.10;62.20
71208;DHT22;58938;49.868;8.646;2022-12-07T15:31:55;9.00;62.20
71208;DHT22;58938;49.868;8.646;2022-12-07T15:34:21;9.00;62.30
71208;DHT22;58938;49.868;8.646;2022-12-07T15:36:47;8.90;62.20
71208;DHT22;58938;49.868;8.646;2022-12-07T15:39:12;8.90;62.20
71208;DHT22;58938;49.868;8.646;2022-12-07T15:41:38;8.80;62.60
71208;DHT22;58938;49.868;8.646;2022-12-07T15:44:04;8.80;62.80
71208;DHT22;58938;49.868;8.646;2022-12-07T15:46:48;8.90;62.80
71208;DHT22;58938;49.868;8.646;2022-12-07T15:49:16;8.90;62.90
71208;DHT22;58938;49.868;8.646;2022-12-07T15:51:42;9.00;62.90
71208;DHT22;58938;49.868;8.646;2022-12-07T15:54:20;9.00;63.00
71208;DHT22;58938;49.868;8.646;2022-12-07T15:56:46;9.00;63.00
71208;DHT22;58938;49.868;8.646;2022-12-07T15:59:12;9.10;63.10
71208;DHT22;58938;49.868;8.646;2022-12-07T16:01:37;9.10;63.10
71208;DHT22;58938;49.868;8.646;2022-12-07T16:04:03;9.20;63.10
71208;DHT22;58938;49.868;8.646;2022-12-07T16:06:29;9.20;63.10
71208;DHT22;58938;49.868;8.646;2022-12-07T16:08:54;9.20;63.00
71208;DHT22;58938;49.868;8.646;2022-12-07T16:11:20;9.20;63.00
71208;DHT22;58938;49.868;8.646;2022-12-07T16:13:46;9.20;63.10
71208;DHT22;58938;49.868;8.646;2022-12-07T16:16:13;9.20;62.90
71208;DHT22;58938;49.868;8.646;2022-12-07T16:18:39;9.20;63.00
71208;DHT22;58938;49.868;8.646;2022-12-07T16:21:06;9.20;63.00
71208;DHT22;58938;49.868;8.646;2022-12-07T16:23:32;9.20;62.90
71208;DHT22;58938;49.868;8.646;2022-12-07T16:26:18;9.10;62.70
71208;DHT22;58938;49.868;8.646;2022-12-07T16:28:47;9.10;62.70
71208;DHT22;58938;49.868;8.646;2022-12-07T16:31:15;8.90;62.10
71208;DHT22;58938;49.868;8.646;2022-12-07T16:33:42;8.60;62.50
71208;DHT22;58938;49.868;8.646;2022-12-07T16:36:10;8.40;63.10
71208;DHT22;58938;49.868;8.646;2022-12-07T16:38:37;8.40;63.40
71208;DHT22;58938;49.868;8.646;2022-12-07T16:41:04;8.40;63.40
71208;DHT22;58938;49.868;8.646;2022-12-07T16:43:30;8.30;63.40
71208;DHT22;58938;49.868;8.646;2022-12-07T16:45:56;8.30;63.60
71208;DHT22;58938;49.868;8.646;2022-12-07T16:48:22;8.30;63.70
71208;DHT22;58938;49.868;8.646;2022-12-07T16:50:47;8.40;63.70
71208;DHT22;58938;49.868;8.646;2022-12-07T16:53:14;8.40;63.70
71208;DHT22;58938;49.868;8.646;2022-12-07T16:55:43;8.50;63.70
71208;DHT22;58938;49.868;8.646;2022-12-07T16:58:09;8.60;63.70
71208;DHT22;58938;49.868;8.646;2022-12-07T17:00:36;8.60;63.60
71208;DHT22;58938;49.868;8.646;2022-12-07T17:03:02;8.70;63.50
71208;DHT22;58938;49.868;8.646;2022-12-07T17:05:28;8.70;63.60
71208;DHT22;58938;49.868;8.646;2022-12-07T17:07:55;8.80;63.60
71208;DHT22;58938;49.868;8.646;2022-12-07T17:10:21;8.80;63.60
71208;DHT22;58938;49.868;8.646;2022-12-07T17:12:47;8.80;63.50
71208;DHT22;58938;49.868;8.646;2022-12-07T17:15:13;8.90;63.50
71208;DHT22;58938;49.868;8.646;2022-12-07T17:17:45;8.90;63.50
71208;DHT22;58938;49.868;8.646;2022-12-07T17:20:12;8.80;63.50
71208;DHT22;58938;49.868;8.646;2022-12-07T17:22:38;8.90;63.40
71208;DHT22;58938;49.868;8.646;2022-12-07T17:25:04;8.90;63.50
71208;DHT22;58938;49.868;8.646;2022-12-07T17:27:31;8.90;63.60
71208;DHT22;58938;49.868;8.646;2022-12-07T17:29:57;8.90;63.60
71208;DHT22;58938;49.868;8.646;2022-12-07T17:32:22;8.90;63.60